| time (UTC) | temp F | wind direction | speed MPH | gust MPH | rain 1hr in | rain 24hr in | rain mn in | humidity % | barometer mb |
| 20260509223518 | 83 | 0.0 | 0.0 | 0.00 | 0.00 | 0.00 | 75 | 1008.3 | |
| 20260509222517 | 83 | 0.0 | 0.0 | 0.00 | 0.00 | 0.00 | 73 | 1008.5 | |
| 20260509221517 | 83 | 0.0 | 1.0 | 0.00 | 0.00 | 0.00 | 74 | 1008.3 | |
| 20260509220517 | 83 | 113 | 1.0 | 4.0 | 0.00 | 0.00 | 0.00 | 73 | 1008.2 |
| 20260509215517 | 84 | 135 | 1.0 | 3.0 | 0.00 | 0.00 | 0.00 | 72 | 1008.4 |
| 20260509214518 | 85 | 90 | 1.0 | 6.0 | 0.00 | 0.00 | 0.00 | 71 | 1008.5 |
| 20260509213538 | 87 | 113 | 1.0 | 5.0 | 0.00 | 0.00 | 0.00 | 70 | 1008.5 |
| 20260509212517 | 89 | 0.0 | 2.0 | 0.00 | 0.00 | 0.00 | 67 | 1008.4 | |
| 20260509211518 | 89 | 203 | 1.0 | 3.0 | 0.00 | 0.00 | 0.00 | 65 | 1008.5 |
| 20260509210517 | 90 | 135 | 1.0 | 4.0 | 0.00 | 0.00 | 0.00 | 63 | 1008.8 |
| 20260509205518 | 91 | 0.0 | 1.0 | 0.00 | 0.00 | 0.00 | 62 | 1008.7 | |
| 20260509204517 | 92 | 0.0 | 2.0 | 0.00 | 0.00 | 0.00 | 61 | 1008.9 | |
| 20260509203517 | 92 | 68 | 1.0 | 3.0 | 0.00 | 0.00 | 0.00 | 60 | 1009.0 |
| 20260509202537 | 92 | 315 | 1.0 | 3.0 | 0.00 | 0.00 | 0.00 | 62 | 1009.0 |
| 20260509201517 | 93 | 90 | 1.0 | 3.0 | 0.00 | 0.00 | 0.00 | 61 | 1009.5 |
| 20260509200518 | 92 | 135 | 2.0 | 4.0 | 0.00 | 0.00 | 0.00 | 64 | 1009.9 |
| 20260509195517 | 91 | 293 | 1.0 | 2.0 | 0.00 | 0.00 | 0.00 | 63 | 1009.9 |
| 20260509194517 | 93 | 90 | 1.0 | 5.0 | 0.00 | 0.00 | 0.00 | 59 | 1009.8 |
| 20260509193517 | 91 | 90 | 1.0 | 3.0 | 0.00 | 0.00 | 0.00 | 66 | 1009.7 |
| 20260509192517 | 90 | 90 | 2.0 | 5.0 | 0.00 | 0.00 | 0.00 | 65 | 1010.0 |
| 20260509191517 | 90 | 270 | 1.0 | 4.0 | 0.00 | 0.00 | 0.00 | 66 | 1009.9 |
| 20260509190517 | 91 | 90 | 1.0 | 3.0 | 0.00 | 0.00 | 0.00 | 65 | 1010.2 |
| 20260509185517 | 90 | 113 | 1.0 | 3.0 | 0.00 | 0.00 | 0.00 | 67 | 1010.4 |
| 20260509184558 | 88 | 338 | 1.0 | 3.0 | 0.00 | 0.00 | 0.00 | 70 | 1010.8 |
| 20260509183517 | 87 | 90 | 1.0 | 5.0 | 0.00 | 0.00 | 0.00 | 70 | 1010.8 |
| 20260509182517 | 86 | 68 | 2.0 | 4.0 | 0.00 | 0.00 | 0.00 | 72 | 1010.9 |
| 20260509181517 | 87 | 90 | 1.0 | 3.0 | 0.00 | 0.00 | 0.00 | 70 | 1011.1 |
| 20260509180557 | 88 | 270 | 1.0 | 2.0 | 0.00 | 0.00 | 0.00 | 70 | 1011.1 |
| 20260509175517 | 86 | 0.0 | 1.0 | 0.00 | 0.00 | 0.00 | 73 | 1011.2 | |
| 20260509174537 | 86 | 0.0 | 1.0 | 0.00 | 0.00 | 0.00 | 73 | 1011.2 | |
| 20260509173517 | 87 | 90 | 1.0 | 4.0 | 0.00 | 0.00 | 0.00 | 71 | 1011.4 |
| 20260509172517 | 86 | 68 | 1.0 | 4.0 | 0.00 | 0.00 | 0.00 | 74 | 1011.4 |
| 20260509171538 | 85 | 0.0 | 3.0 | 0.00 | 0.00 | 0.00 | 77 | 1011.3 | |
| 20260509170517 | 86 | 90 | 1.0 | 6.0 | 0.00 | 0.00 | 0.00 | 76 | 1011.3 |
| 20260509165517 | 85 | 270 | 1.0 | 4.0 | 0.00 | 0.00 | 0.00 | 78 | 1011.4 |
| 20260509164517 | 84 | 293 | 2.0 | 4.0 | 0.00 | 0.00 | 0.00 | 79 | 1011.4 |
| 20260509163517 | 84 | 293 | 1.0 | 3.0 | 0.00 | 0.00 | 0.00 | 79 | 1011.5 |
| 20260509162517 | 83 | 0.0 | 3.0 | 0.00 | 0.00 | 0.00 | 83 | 1011.3 | |
| 20260509161517 | 82 | 315 | 1.0 | 2.0 | 0.00 | 0.00 | 0.00 | 83 | 1011.6 |
| 20260509160517 | 80 | 293 | 1.0 | 5.0 | 0.00 | 0.00 | 0.00 | 85 | 1011.6 |
| 20260509155517 | 79 | 0.0 | 1.0 | 0.00 | 0.00 | 0.00 | 89 | 1011.7 | |
| 20260509154517 | 77 | 0.0 | 2.0 | 0.00 | 0.00 | 0.00 | 90 | 1011.6 | |
| 20260509153517 | 77 | 0.0 | 1.0 | 0.00 | 0.00 | 0.00 | 91 | 1011.6 | |
| 20260509152517 | 77 | 0.0 | 2.0 | 0.00 | 0.00 | 0.00 | 91 | 1011.5 | |
| 20260509151537 | 77 | 0.0 | 2.0 | 0.00 | 0.00 | 0.00 | 92 | 1011.5 | |
| 20260509150537 | 76 | 0.0 | 5.0 | 0.00 | 0.00 | 0.00 | 93 | 1011.4 | |
| 20260509145517 | 76 | 23 | 1.0 | 4.0 | 0.00 | 0.00 | 0.00 | 93 | 1011.2 |
| 20260509144517 | 75 | 0.0 | 2.0 | 0.00 | 0.00 | 0.00 | 94 | 1011.2 | |
| 20260509143516 | 75 | 0.0 | 1.0 | 0.00 | 0.00 | 0.00 | 95 | 1011.6 | |
| 20260509142517 | 75 | 0.0 | 1.0 | 0.00 | 0.00 | 0.00 | 95 | 1011.4 | |
| 20260509141517 | 75 | 0.0 | 1.0 | 0.00 | 0.00 | 0.00 | 95 | 1011.3 | |
| 20260509140516 | 74 | 0.0 | 1.0 | 0.00 | 0.00 | 0.00 | 95 | 1011.1 | |
| 20260509135516 | 74 | 0.0 | 0.0 | 0.00 | 0.00 | 0.00 | 95 | 1011.1 | |
| 20260509134516 | 74 | 0.0 | 2.0 | 0.00 | 0.00 | 0.00 | 95 | 1011.4 | |
| 20260509133517 | 74 | 0.0 | 1.0 | 0.00 | 0.00 | 0.00 | 95 | 1011.6 | |
| 20260509132516 | 74 | 0.0 | 1.0 | 0.00 | 0.00 | 0.00 | 95 | 1011.5 | |
| 20260509131536 | 74 | 315 | 1.0 | 2.0 | 0.00 | 0.00 | 0.00 | 95 | 1011.4 |
| 20260509130517 | 73 | 0.0 | 1.0 | 0.00 | 0.00 | 0.00 | 95 | 1011.3 | |
| 20260509125537 | 74 | 0.0 | 0.0 | 0.00 | 0.00 | 0.00 | 95 | 1011.2 | |
| 20260509124517 | 74 | 0.0 | 0.0 | 0.00 | 0.00 | 0.00 | 95 | 1011.2 | |
| 20260509123517 | 73 | 0.0 | 0.0 | 0.00 | 0.00 | 0.00 | 95 | 1011.2 | |
| 20260509122537 | 73 | 0.0 | 1.0 | 0.00 | 0.00 | 0.00 | 95 | 1011.2 | |
| 20260509121517 | 73 | 0.0 | 0.0 | 0.00 | 0.00 | 0.00 | 95 | 1011.5 | |
| 20260509120516 | 73 | 0.0 | 0.0 | 0.00 | 0.00 | 0.00 | 95 | 1011.3 | |
| 20260509115517 | 73 | 0.0 | 0.0 | 0.00 | 0.00 | 0.00 | 95 | 1011.2 | |
| 20260509114537 | 73 | 0.0 | 1.0 | 0.00 | 0.00 | 0.00 | 95 | 1011.0 | |
| 20260509113516 | 73 | 0.0 | 1.0 | 0.00 | 0.00 | 0.00 | 94 | 1011.1 | |
| 20260509112537 | 73 | 0.0 | 1.0 | 0.00 | 0.00 | 0.00 | 94 | 1011.0 | |
| 20260509111516 | 73 | 135 | 1.0 | 3.0 | 0.00 | 0.00 | 0.00 | 94 | 1011.3 |
| 20260509110516 | 74 | 0.0 | 1.0 | 0.00 | 0.00 | 0.00 | 94 | 1011.2 | |
| 20260509105516 | 74 | 0.0 | 1.0 | 0.00 | 0.00 | 0.00 | 94 | 1011.6 | |
| 20260509104536 | 74 | 0.0 | 0.0 | 0.00 | 0.00 | 0.00 | 94 | 1011.8 | |
| 20260509103537 | 74 | 0.0 | 0.0 | 0.00 | 0.00 | 0.00 | 94 | 1011.8 | |
| 20260509102516 | 74 | 0.0 | 1.0 | 0.00 | 0.00 | 0.00 | 94 | 1011.6 | |
| 20260509101516 | 74 | 0.0 | 0.0 | 0.00 | 0.00 | 0.00 | 94 | 1011.4 | |
| 20260509100516 | 74 | 0.0 | 0.0 | 0.00 | 0.00 | 0.00 | 94 | 1011.0 | |
| 20260509095516 | 74 | 0.0 | 0.0 | 0.00 | 0.00 | 0.00 | 94 | 1010.9 | |
| 20260509094516 | 74 | 0.0 | 0.0 | 0.00 | 0.00 | 0.00 | 94 | 1010.7 | |
| 20260509093557 | 74 | 0.0 | 0.0 | 0.00 | 0.00 | 0.00 | 94 | 1010.8 | |
| 20260509092516 | 74 | 0.0 | 0.0 | 0.00 | 0.00 | 0.00 | 94 | 1010.6 | |
| 20260509091517 | 74 | 0.0 | 0.0 | 0.00 | 0.00 | 0.00 | 94 | 1010.5 | |
| 20260509090516 | 74 | 0.0 | 1.0 | 0.00 | 0.00 | 0.00 | 94 | 1010.3 | |
| 20260509085516 | 74 | 0.0 | 0.0 | 0.00 | 0.00 | 0.00 | 94 | 1010.6 | |
| 20260509084516 | 74 | 0.0 | 0.0 | 0.00 | 0.00 | 0.00 | 94 | 1010.9 | |
| 20260509083516 | 74 | 0.0 | 0.0 | 0.00 | 0.00 | 0.00 | 94 | 1011.2 | |
| 20260509082556 | 74 | 0.0 | 0.0 | 0.00 | 0.00 | 0.00 | 94 | 1011.2 | |
| 20260509081516 | 74 | 0.0 | 0.0 | 0.00 | 0.00 | 0.00 | 94 | 1011.3 | |
| 20260509080516 | 74 | 0.0 | 0.0 | 0.00 | 0.00 | 0.00 | 94 | 1011.1 | |
| 20260509075536 | 74 | 0.0 | 0.0 | 0.00 | 0.00 | 0.00 | 94 | 1011.2 | |
| 20260509074516 | 74 | 0.0 | 0.0 | 0.00 | 0.00 | 0.00 | 94 | 1011.1 | |
| 20260509073516 | 74 | 0.0 | 0.0 | 0.00 | 0.00 | 0.00 | 94 | 1011.1 | |
| 20260509072516 | 74 | 0.0 | 1.0 | 0.00 | 0.00 | 0.00 | 94 | 1010.9 | |
| 20260509071516 | 74 | 0.0 | 0.0 | 0.00 | 0.00 | 0.00 | 94 | 1010.8 | |
| 20260509070516 | 74 | 0.0 | 2.0 | 0.00 | 0.00 | 0.00 | 94 | 1010.9 | |
| 20260509065516 | 74 | 293 | 1.0 | 4.0 | 0.00 | 0.00 | 0.00 | 93 | 1010.7 |
| 20260509064516 | 74 | 0.0 | 2.0 | 0.00 | 0.00 | 0.00 | 93 | 1010.9 | |
| 20260509063516 | 74 | 0.0 | 3.0 | 0.00 | 0.00 | 0.00 | 93 | 1010.7 | |
| 20260509062516 | 74 | 293 | 1.0 | 4.0 | 0.00 | 0.00 | 0.00 | 93 | 1010.8 |
| 20260509061516 | 74 | 315 | 1.0 | 3.0 | 0.00 | 0.00 | 0.00 | 93 | 1010.7 |
| 20260509060516 | 74 | 315 | 1.0 | 5.0 | 0.00 | 0.00 | 0.00 | 93 | 1010.7 |
| 20260509055516 | 74 | 293 | 1.0 | 3.0 | 0.00 | 0.00 | 0.00 | 93 | 1010.8 |
| 20260509054519 | 74 | 293 | 3.0 | 7.0 | 0.00 | 0.00 | 0.00 | 93 | 1011.1 |
| 20260509053538 | 74 | 293 | 1.0 | 4.0 | 0.00 | 0.00 | 0.00 | 92 | 1010.7 |
| 20260509052536 | 74 | 293 | 2.0 | 6.0 | 0.00 | 0.00 | 0.00 | 92 | 1010.4 |
| 20260509051516 | 74 | 293 | 2.0 | 5.0 | 0.00 | 0.00 | 0.00 | 92 | 1010.6 |
| 20260509050516 | 74 | 315 | 2.0 | 5.0 | 0.00 | 0.00 | 0.00 | 92 | 1010.6 |
| 20260509045557 | 74 | 293 | 2.0 | 4.0 | 0.00 | 0.00 | 0.00 | 92 | 1010.6 |
| 20260509044516 | 74 | 293 | 2.0 | 7.0 | 0.00 | 0.00 | 0.00 | 92 | 1010.6 |
| 20260509043536 | 74 | 293 | 1.0 | 3.0 | 0.00 | 0.00 | 0.00 | 91 | 1010.6 |
| 20260509042556 | 74 | 293 | 1.0 | 5.0 | 0.00 | 0.00 | 0.00 | 91 | 1010.7 |
| 20260509041518 | 74 | 315 | 1.0 | 3.0 | 0.00 | 0.00 | 0.00 | 91 | 1010.9 |
| 20260509040516 | 74 | 293 | 1.0 | 3.0 | 0.00 | 0.00 | 0.00 | 91 | 1010.8 |
| 20260509035516 | 74 | 0.0 | 1.0 | 0.00 | 0.00 | 0.00 | 91 | 1010.7 | |
| 20260509034556 | 74 | 0.0 | 2.0 | 0.00 | 0.00 | 0.00 | 90 | 1010.6 | |
| 20260509033536 | 74 | 0.0 | 2.0 | 0.00 | 0.00 | 0.00 | 90 | 1010.5 | |
| 20260509032516 | 75 | 0.0 | 1.0 | 0.00 | 0.00 | 0.00 | 90 | 1010.5 | |
| 20260509031516 | 75 | 0.0 | 0.0 | 0.00 | 0.00 | 0.00 | 89 | 1010.5 | |
| 20260509030516 | 75 | 0.0 | 0.0 | 0.00 | 0.00 | 0.00 | 88 | 1010.2 | |
| 20260509025516 | 75 | 0.0 | 0.0 | 0.00 | 0.00 | 0.00 | 88 | 1010.0 | |
| 20260509024516 | 76 | 0.0 | 0.0 | 0.00 | 0.00 | 0.00 | 87 | 1009.9 | |
| 20260509023536 | 76 | 0.0 | 0.0 | 0.00 | 0.00 | 0.00 | 87 | 1009.7 | |
| 20260509022516 | 76 | 0.0 | 0.0 | 0.00 | 0.00 | 0.00 | 87 | 1009.7 | |
| 20260509021536 | 76 | 0.0 | 0.0 | 0.00 | 0.00 | 0.00 | 86 | 1009.7 | |
| 20260509020556 | 76 | 0.0 | 0.0 | 0.00 | 0.00 | 0.00 | 86 | 1009.4 | |
| 20260509015536 | 77 | 0.0 | 0.0 | 0.00 | 0.00 | 0.00 | 86 | 1009.3 | |
| 20260509014516 | 77 | 0.0 | 1.0 | 0.00 | 0.00 | 0.00 | 85 | 1009.3 | |
| 20260509013516 | 77 | 0.0 | 2.0 | 0.00 | 0.00 | 0.00 | 85 | 1009.2 | |
| 20260509012536 | 77 | 0.0 | 0.0 | 0.00 | 0.00 | 0.00 | 84 | 1009.3 | |
| 20260509011516 | 78 | 0.0 | 0.0 | 0.00 | 0.00 | 0.00 | 84 | 1009.5 | |
| 20260509010515 | 78 | 0.0 | 0.0 | 0.00 | 0.00 | 0.00 | 83 | 1009.4 | |
| 20260509005536 | 78 | 0.0 | 1.0 | 0.00 | 0.00 | 0.00 | 83 | 1009.2 | |
| 20260509004516 | 78 | 0.0 | 0.0 | 0.00 | 0.00 | 0.00 | 83 | 1009.3 | |
| 20260509003516 | 79 | 0.0 | 2.0 | 0.00 | 0.00 | 0.00 | 82 | 1009.4 | |
| 20260509002556 | 79 | 0.0 | 2.0 | 0.00 | 0.00 | 0.00 | 82 | 1009.2 | |
| 20260509001516 | 79 | 0.0 | 2.0 | 0.00 | 0.00 | 0.00 | 81 | 1009.3 | |
| 20260509000516 | 79 | 0.0 | 2.0 | 0.00 | 0.00 | 0.00 | 81 | 1009.2 | |
| 20260508235536 | 79 | 0.0 | 1.0 | 0.00 | 0.00 | 0.00 | 80 | 1009.1 | |
| 20260508234515 | 80 | 0.0 | 2.0 | 0.00 | 0.00 | 0.00 | 80 | 1009.2 | |
| 20260508233515 | 79 | 293 | 1.0 | 3.0 | 0.00 | 0.00 | 0.00 | 80 | 1009.2 |
| 20260508232516 | 80 | 293 | 1.0 | 3.0 | 0.00 | 0.00 | 0.00 | 79 | 1009.1 |
| 20260508231518 | 80 | 315 | 1.0 | 3.0 | 0.00 | 0.00 | 0.00 | 78 | 1009.3 |
| 20260508230517 | 81 | 315 | 1.0 | 3.0 | 0.00 | 0.00 | 0.00 | 76 | 1009.3 |
| 20260508225537 | 81 | 0.0 | 3.0 | 0.00 | 0.00 | 0.00 | 79 | 1009.2 | |
| 20260508224515 | 80 | 315 | 1.0 | 4.0 | 0.00 | 0.00 | 0.00 | 79 | 1009.2 |